createdAt,value
2023-03-01T00:01:22.204Z,-145.28
2023-03-01T00:03:51.433Z,-145.28
2023-03-01T00:06:18.889Z,-145.28
2023-03-01T00:08:48.598Z,-145.28
2023-03-01T00:11:20.420Z,-145.28
2023-03-01T00:13:49.110Z,-145.28
2023-03-01T00:16:23.229Z,-145.28
2023-03-01T00:18:52.118Z,-145.28
2023-03-01T00:21:18.840Z,-145.28
2023-03-01T00:23:45.408Z,-145.28
2023-03-01T00:26:16.880Z,-145.28
2023-03-01T00:28:43.786Z,-145.28
2023-03-01T00:31:14.991Z,-145.28
2023-03-01T00:33:45.174Z,-145.28
2023-03-01T00:36:13.518Z,-145.28
2023-03-01T00:38:42.808Z,-145.28
2023-03-01T00:41:12.375Z,-145.28
2023-03-01T00:43:39.177Z,-145.28
2023-03-01T00:46:11.059Z,-145.28
2023-03-01T00:48:37.997Z,-145.28
2023-03-01T00:51:16.480Z,-145.28
2023-03-01T00:53:46.138Z,-145.28
2023-03-01T00:56:14.826Z,-145.28
2023-03-01T00:58:41.994Z,-145.28
2023-03-01T01:01:18.576Z,-145.28
2023-03-01T01:03:50.782Z,-145.28
2023-03-01T01:06:22.857Z,-145.28
2023-03-01T01:08:49.670Z,-145.28
2023-03-01T01:11:17.035Z,-145.28
2023-03-01T01:13:47.313Z,-145.28
2023-03-01T01:16:15.420Z,-145.28
2023-03-01T01:18:41.938Z,-145.28
2023-03-01T01:21:11.620Z,-145.28
2023-03-01T01:23:39.492Z,-145.28
2023-03-01T01:26:08.489Z,-145.28
2023-03-01T01:28:37.920Z,-145.28
2023-03-01T01:31:05.189Z,-145.28
2023-03-01T01:33:32.351Z,-145.28
2023-03-01T01:36:00.151Z,-145.28
2023-03-01T01:38:26.623Z,-145.28
2023-03-01T01:40:56.268Z,-145.28
2023-03-01T01:43:38.543Z,-145.28
2023-03-01T01:46:16.468Z,-145.28
2023-03-01T01:48:47.618Z,-145.28
2023-03-01T01:51:23.670Z,-145.28
2023-03-01T01:53:55.203Z,-145.28
2023-03-01T01:56:23.599Z,-145.28
2023-03-01T01:58:51.570Z,-145.28
2023-03-01T02:01:18.208Z,-145.28
2023-03-01T02:03:47.725Z,-145.28
2023-03-01T02:06:33.436Z,-145.28
2023-03-01T02:09:12.242Z,-145.28
2023-03-01T02:11:38.751Z,-145.28
2023-03-01T02:14:06.405Z,-145.28
2023-03-01T02:16:33.960Z,-145.28
2023-03-01T02:19:01.603Z,-145.28
2023-03-01T02:22:00.450Z,-145.28
2023-03-01T02:24:41.185Z,-145.28
2023-03-01T02:27:07.920Z,-145.28
2023-03-01T02:29:37.419Z,-145.28
2023-03-01T02:32:05.546Z,-145.28
2023-03-01T02:34:33.767Z,-145.28
2023-03-01T02:37:07.994Z,-145.28
2023-03-01T02:39:45.178Z,-145.28
2023-03-01T02:42:18.194Z,-145.28
2023-03-01T02:44:47.623Z,-145.28
2023-03-01T02:47:16.150Z,-145.28
2023-03-01T02:49:42.662Z,-145.28
2023-03-01T02:52:38.325Z,-145.28
2023-03-01T02:55:08.476Z,-145.28
2023-03-01T02:57:41.802Z,-145.28
2023-03-01T03:00:21.628Z,-145.28
2023-03-01T03:02:50.152Z,-145.28
2023-03-01T03:05:21.630Z,-145.28
2023-03-01T03:07:52.575Z,-145.28
2023-03-01T03:10:32.679Z,-145.28
2023-03-01T06:42:51.718Z,-4.84
2023-03-01T06:45:20.331Z,-4.77
2023-03-01T06:47:47.295Z,-4.82
2023-03-01T06:50:15.512Z,-4.73
2023-03-01T06:52:42.354Z,-4.72
2023-03-01T06:55:10.125Z,-4.67
2023-03-01T06:57:36.620Z,-4.65
2023-03-01T07:00:05.000Z,-4.65
2023-03-01T07:02:31.864Z,-4.58
2023-03-01T07:04:58.281Z,-4.64
2023-03-01T07:07:25.215Z,-4.76
2023-03-01T07:09:51.660Z,-4.47
2023-03-01T07:12:18.062Z,-4.48
2023-03-01T07:14:45.437Z,-4.22
2023-03-01T07:17:11.992Z,-4.21
2023-03-01T07:19:38.449Z,-4.13
2023-03-01T07:22:05.575Z,-4.01
2023-03-01T07:24:32.043Z,-3.93
2023-03-01T07:26:58.456Z,-3.81
2023-03-01T07:29:24.930Z,-3.78
2023-03-01T07:31:51.457Z,-3.67
2023-03-01T07:34:17.953Z,-3.59
2023-03-01T07:36:46.242Z,-3.51
2023-03-01T07:39:12.911Z,-3.46
2023-03-01T07:41:39.555Z,-3.37
2023-03-01T07:44:06.445Z,-3.24
2023-03-01T07:46:33.547Z,-3.16
2023-03-01T07:49:00.826Z,-3.08
2023-03-01T07:51:27.375Z,-3.01
2023-03-01T07:53:53.885Z,-2.90
2023-03-01T07:56:22.542Z,-2.80
2023-03-01T07:58:50.687Z,-2.71
2023-03-01T08:01:20.362Z,-2.71
2023-03-01T08:03:48.905Z,-2.54
2023-03-01T08:06:17.211Z,-2.42
2023-03-01T08:08:43.997Z,-2.31
2023-03-01T08:11:15.215Z,-2.20
2023-03-01T08:13:41.697Z,-2.15
2023-03-01T08:16:14.126Z,-2.06
2023-03-01T08:18:41.007Z,-1.89
2023-03-01T08:21:10.495Z,-1.86
2023-03-01T08:23:37.290Z,-1.79
2023-03-01T08:26:09.255Z,-1.64
2023-03-01T08:28:36.476Z,-1.49
2023-03-01T08:31:03.020Z,-1.35
2023-03-01T08:33:29.830Z,-1.24
2023-03-01T08:36:07.798Z,-1.05
2023-03-01T08:38:36.391Z,-1.04
2023-03-01T08:41:04.418Z,-0.81
2023-03-01T08:43:31.232Z,-0.78
2023-03-01T08:45:57.755Z,-0.61
2023-03-01T08:48:24.245Z,-0.46
2023-03-01T08:50:51.825Z,-0.36
2023-03-01T08:53:18.298Z,-0.16
2023-03-01T08:55:44.854Z,-0.08
2023-03-01T08:58:11.311Z,0.15
2023-03-01T09:00:40.780Z,0.37
2023-03-01T09:03:07.541Z,0.42
2023-03-01T09:05:35.111Z,0.58
2023-03-01T09:08:01.678Z,0.67
2023-03-01T09:10:28.129Z,0.77
2023-03-01T09:12:54.578Z,0.96
2023-03-01T09:15:21.014Z,1.13
2023-03-01T09:17:47.885Z,1.27
2023-03-01T09:20:14.380Z,1.47
2023-03-01T09:22:40.877Z,1.61
2023-03-01T09:25:07.585Z,1.71
2023-03-01T09:27:34.030Z,1.86
2023-03-01T09:30:00.468Z,1.95
2023-03-01T09:32:27.032Z,2.12
2023-03-01T09:35:04.609Z,2.20
2023-03-01T09:37:33.217Z,2.33
2023-03-01T09:39:59.863Z,2.36
2023-03-01T09:42:29.372Z,2.53
2023-03-01T09:45:04.408Z,2.66
2023-03-01T09:47:35.746Z,2.73
2023-03-01T09:50:10.607Z,2.85
2023-03-01T09:52:42.259Z,3.06
2023-03-01T09:55:15.605Z,3.23
2023-03-01T09:57:51.436Z,3.59
2023-03-01T10:00:34.182Z,4.00
2023-03-01T10:03:17.121Z,4.64
2023-03-01T10:05:56.153Z,5.37
2023-03-01T10:08:49.089Z,6.25
2023-03-01T10:11:25.392Z,7.25
2023-03-01T10:13:53.861Z,8.27
2023-03-01T10:16:41.212Z,9.24
2023-03-01T10:19:15.199Z,10.02
2023-03-01T10:21:49.189Z,10.92
2023-03-01T10:24:22.764Z,11.63
2023-03-01T10:27:03.795Z,11.92
2023-03-01T10:29:38.715Z,12.21
2023-03-01T10:32:07.951Z,12.66
2023-03-01T10:34:36.724Z,13.01
2023-03-01T10:37:19.650Z,13.15
2023-03-01T10:40:10.401Z,13.42
2023-03-01T10:42:47.440Z,13.76
2023-03-01T10:45:35.728Z,13.96
2023-03-01T10:48:13.125Z,14.23
2023-03-01T10:50:42.401Z,14.35
2023-03-01T10:53:30.146Z,14.59
2023-03-01T10:56:13.070Z,15.00
2023-03-01T10:58:42.389Z,15.10
2023-03-01T11:01:18.087Z,15.10
2023-03-01T11:03:44.456Z,14.97
2023-03-01T11:06:13.611Z,14.77
2023-03-01T11:08:42.096Z,14.89
2023-03-01T11:11:23.522Z,14.77
2023-03-01T11:14:00.694Z,15.03
2023-03-01T11:16:35.150Z,15.37
2023-03-01T11:19:10.539Z,15.78
2023-03-01T11:21:41.899Z,16.09
2023-03-01T11:24:13.971Z,16.19
2023-03-01T11:26:44.231Z,16.42
2023-03-01T11:29:34.880Z,16.85
2023-03-01T11:32:10.011Z,16.98
2023-03-01T11:34:46.350Z,16.96
2023-03-01T11:37:36.704Z,17.02
2023-03-01T11:40:17.132Z,17.23
2023-03-01T11:42:53.121Z,17.19
2023-03-01T11:45:24.860Z,17.49
2023-03-01T11:48:48.746Z,18.25
2023-03-01T11:51:25.941Z,18.55
2023-03-01T11:53:52.447Z,18.95
2023-03-01T11:56:33.828Z,19.03
2023-03-01T11:59:31.082Z,19.00
2023-03-01T12:02:36.008Z,19.23
2023-03-01T12:05:26.554Z,19.40
2023-03-01T12:08:02.049Z,19.28
2023-03-01T12:10:28.392Z,18.97
2023-03-01T12:13:13.209Z,19.12
2023-03-01T12:16:06.353Z,19.35
2023-03-01T12:18:51.290Z,19.18
2023-03-01T12:21:48.903Z,18.77
2023-03-01T12:24:27.817Z,19.23
2023-03-01T12:26:54.382Z,19.52
2023-03-01T12:29:31.910Z,19.67
2023-03-01T12:32:21.993Z,19.58
2023-03-01T12:34:51.577Z,19.60
2023-03-01T12:37:37.021Z,19.54
2023-03-01T12:40:21.913Z,19.93
2023-03-01T12:42:51.242Z,19.85
2023-03-01T12:45:45.484Z,19.72
2023-03-01T12:48:30.585Z,19.99
2023-03-01T12:51:00.592Z,19.89
2023-03-01T12:53:30.003Z,20.05
2023-03-01T12:56:10.837Z,20.29
2023-03-01T12:58:58.674Z,20.50
2023-03-01T13:01:37.618Z,20.42
2023-03-01T13:04:16.486Z,20.72
2023-03-01T13:06:46.198Z,20.87
2023-03-01T13:09:20.871Z,21.15
2023-03-01T13:11:47.321Z,21.49
2023-03-01T13:14:23.787Z,21.79
2023-03-01T13:16:54.481Z,21.45
2023-03-01T13:19:26.742Z,21.15
2023-03-01T13:21:57.613Z,21.32
2023-03-01T13:24:43.343Z,21.39
2023-03-01T13:27:25.781Z,21.39
2023-03-01T13:30:04.178Z,21.37
2023-03-01T13:32:43.606Z,21.77
2023-03-01T13:35:19.992Z,21.84
2023-03-01T13:37:46.787Z,21.79
2023-03-01T13:40:23.611Z,21.83
2023-03-01T13:43:04.252Z,21.72
2023-03-01T13:45:43.377Z,21.67
2023-03-01T13:48:12.068Z,21.78
2023-03-01T13:50:44.196Z,22.02
2023-03-01T13:53:14.465Z,22.05
2023-03-01T13:55:46.388Z,22.08
2023-03-01T13:58:29.482Z,21.84
2023-03-01T14:04:47.621Z,21.66
2023-03-01T14:07:55.507Z,21.93
2023-03-01T14:10:52.222Z,22.39
2023-03-01T14:13:30.267Z,22.78
2023-03-01T14:16:02.696Z,22.61
2023-03-01T14:18:36.782Z,22.24
2023-03-01T14:21:08.110Z,21.66
2023-03-01T14:23:36.668Z,21.63
2023-03-01T14:26:03.013Z,21.74
2023-03-01T14:28:31.016Z,21.79
2023-03-01T14:30:58.669Z,21.52
2023-03-01T14:33:37.125Z,21.13
2023-03-01T14:36:05.148Z,21.14
2023-03-01T14:38:31.494Z,21.12
2023-03-01T14:40:59.550Z,21.00
2023-03-01T14:43:28.865Z,20.85
2023-03-01T14:45:55.350Z,20.61
2023-03-01T14:48:22.240Z,20.72
2023-03-01T14:50:49.582Z,20.61
2023-03-01T14:53:22.868Z,20.41
2023-03-01T14:55:53.301Z,20.52
2023-03-01T14:58:21.410Z,20.43
2023-03-01T15:00:58.439Z,20.56
2023-03-01T15:03:39.773Z,20.41
2023-03-01T15:06:07.533Z,20.50
2023-03-01T15:08:35.261Z,20.76
2023-03-01T15:11:04.236Z,21.10
2023-03-01T15:13:34.781Z,21.50
2023-03-01T15:16:21.597Z,21.63
2023-03-01T15:18:55.101Z,21.15
2023-03-01T15:21:28.041Z,20.99
2023-03-01T15:23:55.835Z,20.75
2023-03-01T15:26:24.147Z,20.68
2023-03-01T15:28:51.597Z,20.42
2023-03-01T15:31:21.255Z,20.48
2023-03-01T15:33:50.299Z,20.44
2023-03-01T15:36:35.298Z,20.33
2023-03-01T15:39:03.440Z,19.94
2023-03-01T15:41:33.370Z,19.58
2023-03-01T15:44:01.657Z,19.28
2023-03-01T15:46:35.331Z,19.28
2023-03-01T15:49:20.431Z,19.22
2023-03-01T15:51:47.074Z,19.32
2023-03-01T15:54:21.332Z,19.24
2023-03-01T15:56:48.224Z,19.20
2023-03-01T15:59:15.042Z,18.99
2023-03-01T16:01:42.475Z,18.88
2023-03-01T16:04:21.600Z,18.70
2023-03-01T16:06:55.347Z,17.97
2023-03-01T16:09:25.336Z,15.82
2023-03-01T16:11:52.737Z,13.97
2023-03-01T16:14:19.392Z,12.73
2023-03-01T16:16:47.243Z,11.83
2023-03-01T16:19:13.725Z,11.08
2023-03-01T16:21:40.286Z,10.43
2023-03-01T16:24:07.329Z,9.76
2023-03-01T16:26:33.839Z,9.42
2023-03-01T16:29:00.438Z,9.19
2023-03-01T16:31:28.137Z,8.95
2023-03-01T16:33:56.569Z,8.66
2023-03-01T16:36:27.256Z,8.45
2023-03-01T16:38:53.924Z,8.18
2023-03-01T16:41:22.939Z,7.97
2023-03-01T16:43:50.251Z,7.75
2023-03-01T16:46:30.069Z,7.53
2023-03-01T16:48:57.205Z,7.27
2023-03-01T16:51:24.554Z,7.06
2023-03-01T16:53:51.590Z,6.83
2023-03-01T16:56:19.690Z,6.73
2023-03-01T16:58:46.802Z,6.57
2023-03-01T17:01:16.977Z,6.52
2023-03-01T17:03:44.571Z,6.29
2023-03-01T17:06:17.968Z,6.17
2023-03-01T17:08:44.530Z,5.89
2023-03-01T17:11:16.646Z,5.73
2023-03-01T17:13:43.646Z,5.50
2023-03-01T17:16:13.687Z,5.38
2023-03-01T17:18:40.382Z,5.22
2023-03-01T17:21:07.844Z,5.09
2023-03-01T17:23:35.825Z,5.06
2023-03-01T17:26:02.817Z,4.97
2023-03-01T17:28:31.684Z,4.78
2023-03-01T17:31:00.162Z,4.59
2023-03-01T17:33:26.993Z,4.47
2023-03-01T17:35:53.551Z,4.49
2023-03-01T17:38:20.211Z,4.40
2023-03-01T17:40:46.950Z,4.18
2023-03-01T17:43:15.437Z,4.05
2023-03-01T17:45:44.609Z,4.06
2023-03-01T17:48:11.444Z,3.95
2023-03-01T17:50:40.450Z,3.93
2023-03-01T17:53:09.956Z,3.74
2023-03-01T17:55:37.693Z,3.69
2023-03-01T17:58:05.637Z,3.62
2023-03-01T18:00:33.140Z,3.59
2023-03-01T18:02:59.648Z,3.53
2023-03-01T18:05:26.691Z,3.47
2023-03-01T18:07:53.700Z,3.36
2023-03-01T18:10:21.009Z,3.33
2023-03-01T18:12:47.558Z,3.26
2023-03-01T18:15:14.136Z,3.18
2023-03-01T18:17:40.799Z,3.15
2023-03-01T18:20:07.889Z,3.00
2023-03-01T18:22:34.367Z,3.02
2023-03-01T18:25:00.824Z,2.90
2023-03-01T18:27:27.321Z,2.82
2023-03-01T18:29:53.893Z,2.76
2023-03-01T18:32:20.427Z,2.62
2023-03-01T18:34:48.336Z,2.59
2023-03-01T18:37:15.238Z,2.61
2023-03-01T18:39:41.888Z,2.45
2023-03-01T18:42:08.623Z,2.49
2023-03-01T18:44:36.126Z,2.44
2023-03-01T18:47:02.591Z,2.33
2023-03-01T18:49:29.062Z,2.31
2023-03-01T18:51:56.458Z,2.22
2023-03-01T18:54:23.102Z,2.23
2023-03-01T18:56:49.604Z,2.28
2023-03-01T18:59:16.117Z,2.20
2023-03-01T19:01:43.377Z,2.00
2023-03-01T19:04:11.404Z,2.00
2023-03-01T19:06:38.699Z,1.91
2023-03-01T19:09:07.365Z,1.81
2023-03-01T19:11:35.596Z,1.76
2023-03-01T19:14:03.231Z,1.71
2023-03-01T19:16:32.162Z,1.66
2023-03-01T19:19:03.925Z,1.58
2023-03-01T19:21:32.330Z,1.46
2023-03-01T19:23:59.952Z,1.44
2023-03-01T19:26:39.977Z,1.41
2023-03-01T19:29:06.496Z,1.42
2023-03-01T19:31:33.071Z,1.34
2023-03-01T19:34:15.667Z,1.26
2023-03-01T19:36:43.727Z,1.23
2023-03-01T19:39:13.366Z,1.21
2023-03-01T19:41:40.234Z,1.11
2023-03-01T19:44:08.625Z,1.12
2023-03-01T19:46:35.649Z,1.07
2023-03-01T19:49:06.171Z,1.00
2023-03-01T19:51:36.062Z,0.99
2023-03-01T19:54:03.986Z,0.91
2023-03-01T19:56:31.490Z,0.91
2023-03-01T19:59:00.522Z,0.94
2023-03-01T20:01:32.824Z,0.93
2023-03-01T20:03:59.851Z,0.84
2023-03-01T20:06:26.343Z,0.79
2023-03-01T20:08:52.924Z,0.79
2023-03-01T20:11:20.748Z,0.77
2023-03-01T20:13:47.203Z,0.73
2023-03-01T20:16:17.846Z,0.63
2023-03-01T20:18:44.458Z,0.53
2023-03-01T20:21:22.842Z,0.53
2023-03-01T20:23:50.454Z,0.46
2023-03-01T20:26:19.644Z,0.50
2023-03-01T20:28:48.247Z,0.50
2023-03-01T20:31:16.494Z,0.38
2023-03-01T20:33:42.932Z,0.41
2023-03-01T20:36:10.201Z,0.48
2023-03-01T20:38:37.817Z,0.49
2023-03-01T20:41:12.621Z,0.44
2023-03-01T20:43:41.578Z,0.37
2023-03-01T20:46:15.255Z,0.37
2023-03-01T20:48:43.151Z,0.29
2023-03-01T20:51:11.198Z,0.24
2023-03-01T20:53:37.689Z,0.21
2023-03-01T20:56:06.941Z,0.21
2023-03-01T20:58:34.507Z,0.18
2023-03-01T21:01:02.059Z,0.12
2023-03-01T21:03:28.670Z,0.09
2023-03-01T21:05:56.894Z,0.03
2023-03-01T21:08:23.618Z,-0.05
2023-03-01T21:10:54.620Z,-0.04
2023-03-01T21:13:22.274Z,-0.20
2023-03-01T21:16:00.865Z,-0.25
2023-03-01T21:18:31.493Z,-0.26
2023-03-01T21:21:03.753Z,-0.26
2023-03-01T21:23:32.027Z,-0.28
2023-03-01T21:26:06.280Z,-0.23
2023-03-01T21:28:34.572Z,-0.20
2023-03-01T21:31:15.823Z,-0.30
2023-03-01T21:33:47.531Z,-0.26
2023-03-01T21:36:15.101Z,-0.27
2023-03-01T21:38:43.524Z,-0.33
2023-03-01T21:41:18.010Z,-0.34
2023-03-01T21:43:45.844Z,-0.33
2023-03-01T21:46:18.154Z,-0.20
2023-03-01T21:48:46.038Z,-0.25
2023-03-01T21:51:15.240Z,-0.31
2023-03-01T21:53:42.551Z,-0.31
2023-03-01T21:56:09.952Z,-0.36
2023-03-01T21:58:36.585Z,-0.37
2023-03-01T22:01:31.003Z,-0.45
2023-03-01T22:04:18.212Z,-0.44
2023-03-01T22:06:46.456Z,-0.53
2023-03-01T22:09:19.635Z,-0.55
2023-03-01T22:11:49.470Z,-0.61
2023-03-01T22:14:20.173Z,-0.67
2023-03-01T22:16:48.022Z,-0.69
2023-03-01T22:19:16.206Z,-0.64
2023-03-01T22:21:45.391Z,-0.68
2023-03-01T22:24:13.584Z,-0.72
2023-03-01T22:26:43.070Z,-0.78
2023-03-01T22:29:13.420Z,-0.78
2023-03-01T22:31:40.574Z,-0.85
2023-03-01T22:34:07.185Z,-0.78
2023-03-01T22:36:34.485Z,-0.82
2023-03-01T22:39:01.932Z,-0.78
2023-03-01T22:41:34.557Z,-0.68
2023-03-01T22:44:01.239Z,-0.74
2023-03-01T22:46:28.505Z,-0.73
2023-03-01T22:48:55.594Z,-0.67
2023-03-01T22:51:28.784Z,-0.71
2023-03-01T22:53:55.935Z,-0.83
2023-03-01T22:56:26.157Z,-0.83
2023-03-01T22:58:52.915Z,-0.88
2023-03-01T23:01:24.134Z,-0.84
2023-03-01T23:03:51.813Z,-0.90
2023-03-01T23:06:20.112Z,-0.96
2023-03-01T23:08:53.302Z,-0.96
2023-03-01T23:11:20.698Z,-0.94
2023-03-01T23:13:47.716Z,-0.96
2023-03-01T23:16:14.395Z,-0.91
2023-03-01T23:18:41.560Z,-0.96
2023-03-01T23:21:13.038Z,-1.01
2023-03-01T23:23:39.969Z,-1.01
2023-03-01T23:26:07.723Z,-1.02
2023-03-01T23:28:35.538Z,-0.91
2023-03-01T23:31:07.884Z,-0.90
2023-03-01T23:33:37.769Z,-0.90
2023-03-01T23:36:15.977Z,-0.81
2023-03-01T23:38:42.603Z,-0.67
2023-03-01T23:41:13.996Z,-0.64
2023-03-01T23:43:43.422Z,-0.65
2023-03-01T23:46:14.216Z,-0.60
2023-03-01T23:48:45.164Z,-0.58
2023-03-01T23:51:12.277Z,-0.58
2023-03-01T23:53:42.398Z,-0.61
2023-03-01T23:56:12.209Z,-0.71
2023-03-01T23:58:38.665Z,-0.74
